EJM512 KAPA-KDAL
Flight info
| Callsign | EJM512 |
|---|---|
| Flight time | 1h 48m |
| Altitude | 41000 |
| Route | SKYEE1 VRONI PNH STNLI JFRYE5 |
| Aircraft | FA50/M-SDFGHIM1RWXY/H |
Departure
| Time | 2026-05-07 09:19 |
|---|---|
| Airport | Centennial Airport (KAPA) |
Arrival
| Time | 2026-05-07 11:07 |
|---|---|
| Airport | Dallas Love Field (KDAL) |
| Time | Latitude | Longitude | Altitude | Speed | Heading |
|---|---|---|---|---|---|
| 2026-05-07 08:53 | 39.57173 | -104.83744 | 5889 ft | 0 kts | 88° |
| 2026-05-07 09:10 | 39.57168 | -104.83722 | 5889 ft | 5 kts | 127° |
| 2026-05-07 09:10 | 39.57118 | -104.83713 | 5889 ft | 9 kts | 184° |
| 2026-05-07 09:10 | 39.57062 | -104.83715 | 5889 ft | 6 kts | 208° |
| 2026-05-07 09:11 | 39.57049 | -104.83751 | 5889 ft | 4 kts | 282° |
| 2026-05-07 09:11 | 39.57058 | -104.83785 | 5889 ft | 5 kts | 290° |
| 2026-05-07 09:11 | 39.57072 | -104.83831 | 5889 ft | 6 kts | 292° |
| 2026-05-07 09:11 | 39.57089 | -104.83890 | 5889 ft | 8 kts | 290° |
| 2026-05-07 09:12 | 39.57110 | -104.83961 | 5889 ft | 9 kts | 292° |
| 2026-05-07 09:12 | 39.57133 | -104.84042 | 5889 ft | 10 kts | 290° |
| 2026-05-07 09:12 | 39.57160 | -104.84133 | 5889 ft | 11 kts | 290° |
| 2026-05-07 09:12 | 39.57190 | -104.84232 | 5889 ft | 12 kts | 291° |
| 2026-05-07 09:13 | 39.57223 | -104.84339 | 5889 ft | 13 kts | 289° |
| 2026-05-07 09:13 | 39.57256 | -104.84455 | 5889 ft | 14 kts | 291° |
| 2026-05-07 09:13 | 39.57292 | -104.84575 | 5889 ft | 13 kts | 291° |
| 2026-05-07 09:13 | 39.57320 | -104.84672 | 5889 ft | 11 kts | 290° |
| 2026-05-07 09:14 | 39.57350 | -104.84771 | 5889 ft | 12 kts | 293° |
| 2026-05-07 09:14 | 39.57387 | -104.84876 | 5889 ft | 13 kts | 298° |
| 2026-05-07 09:14 | 39.57450 | -104.84961 | 5889 ft | 14 kts | 353° |
| 2026-05-07 09:14 | 39.57552 | -104.84966 | 5889 ft | 16 kts | 358° |
| 2026-05-07 09:15 | 39.57650 | -104.84970 | 5889 ft | 13 kts | 358° |
| 2026-05-07 09:15 | 39.57747 | -104.84975 | 5889 ft | 15 kts | 358° |
| 2026-05-07 09:15 | 39.57857 | -104.84981 | 5889 ft | 17 kts | 358° |
| 2026-05-07 09:15 | 39.57980 | -104.84986 | 5889 ft | 18 kts | 357° |
| 2026-05-07 09:16 | 39.58113 | -104.84993 | 5889 ft | 19 kts | 357° |
| 2026-05-07 09:16 | 39.58183 | -104.84997 | 5889 ft | 10 kts | 357° |
| 2026-05-07 09:16 | 39.58262 | -104.84999 | 5889 ft | 12 kts | 358° |
| 2026-05-07 09:16 | 39.58353 | -104.85004 | 5889 ft | 12 kts | 358° |
| 2026-05-07 09:17 | 39.58407 | -104.85026 | 5889 ft | 8 kts | 282° |
| 2026-05-07 09:17 | 39.58409 | -104.85085 | 5889 ft | 0 kts | 267° |
| 2026-05-07 09:17 | 39.58409 | -104.85087 | 5889 ft | 1 kts | 267° |
| 2026-05-07 09:18 | 39.58409 | -104.85110 | 5889 ft | 4 kts | 269° |
| 2026-05-07 09:18 | 39.58401 | -104.85145 | 5889 ft | 5 kts | 204° |
| 2026-05-07 09:18 | 39.58325 | -104.85144 | 5889 ft | 35 kts | 178° |
| 2026-05-07 09:18 | 39.57828 | -104.85121 | 5889 ft | 108 kts | 178° |
| 2026-05-07 09:19 | 39.56855 | -104.85059 | 6046 ft | 157 kts | 178° |
| 2026-05-07 09:19 | 39.55781 | -104.84979 | 6786 ft | 153 kts | 180° |
| 2026-05-07 09:19 | 39.54730 | -104.84759 | 7553 ft | 158 kts | 166° |
| 2026-05-07 09:19 | 39.53680 | -104.84139 | 7971 ft | 171 kts | 154° |
| 2026-05-07 09:20 | 39.52586 | -104.83345 | 8158 ft | 190 kts | 153° |
| 2026-05-07 09:20 | 39.51488 | -104.82311 | 8529 ft | 196 kts | 144° |
| 2026-05-07 09:20 | 39.50395 | -104.81217 | 8990 ft | 201 kts | 148° |
| 2026-05-07 09:20 | 39.49218 | -104.80201 | 9479 ft | 204 kts | 152° |
| 2026-05-07 09:21 | 39.47998 | -104.79288 | 9953 ft | 206 kts | 155° |
| 2026-05-07 09:21 | 39.46721 | -104.78414 | 10434 ft | 208 kts | 157° |
| 2026-05-07 09:21 | 39.45427 | -104.77563 | 10912 ft | 209 kts | 158° |
| 2026-05-07 09:21 | 39.44123 | -104.76723 | 11391 ft | 210 kts | 159° |
| 2026-05-07 09:22 | 39.42815 | -104.75891 | 11865 ft | 209 kts | 159° |
| 2026-05-07 09:22 | 39.41497 | -104.75056 | 12342 ft | 211 kts | 159° |
| 2026-05-07 09:22 | 39.40157 | -104.74208 | 12825 ft | 216 kts | 159° |
| 2026-05-07 09:22 | 39.38794 | -104.73344 | 13304 ft | 220 kts | 159° |
| 2026-05-07 09:23 | 39.37410 | -104.72465 | 13784 ft | 222 kts | 159° |
| 2026-05-07 09:23 | 39.36032 | -104.71589 | 14255 ft | 224 kts | 160° |
| 2026-05-07 09:23 | 39.34623 | -104.70696 | 14733 ft | 225 kts | 160° |
| 2026-05-07 09:23 | 39.33216 | -104.69806 | 15209 ft | 226 kts | 160° |
| 2026-05-07 09:24 | 39.31808 | -104.68917 | 15680 ft | 225 kts | 160° |
| 2026-05-07 09:24 | 39.30393 | -104.68024 | 16156 ft | 228 kts | 160° |
| 2026-05-07 09:24 | 39.28941 | -104.67111 | 16640 ft | 235 kts | 160° |
| 2026-05-07 09:24 | 39.27448 | -104.66172 | 17123 ft | 241 kts | 160° |
| 2026-05-07 09:25 | 39.25924 | -104.65210 | 17606 ft | 246 kts | 160° |
| 2026-05-07 09:25 | 39.24380 | -104.64233 | 18085 ft | 249 kts | 160° |
| 2026-05-07 09:25 | 39.22814 | -104.63244 | 18564 ft | 252 kts | 160° |
| 2026-05-07 09:25 | 39.21234 | -104.62244 | 19044 ft | 253 kts | 160° |
| 2026-05-07 09:26 | 39.19666 | -104.61256 | 19512 ft | 254 kts | 160° |
| 2026-05-07 09:26 | 39.18079 | -104.60256 | 19988 ft | 254 kts | 160° |
| 2026-05-07 09:26 | 39.16488 | -104.59255 | 20464 ft | 257 kts | 160° |
| 2026-05-07 09:26 | 39.14861 | -104.58234 | 20926 ft | 262 kts | 160° |
| 2026-05-07 09:27 | 39.13204 | -104.57193 | 21361 ft | 267 kts | 160° |
| 2026-05-07 09:27 | 39.11522 | -104.56136 | 21791 ft | 271 kts | 160° |
| 2026-05-07 09:27 | 39.08074 | -104.54062 | 22647 ft | 275 kts | 162° |
| 2026-05-07 09:28 | 39.06323 | -104.53050 | 23063 ft | 277 kts | 162° |
| 2026-05-07 09:28 | 39.04548 | -104.52030 | 23415 ft | 281 kts | 162° |
| 2026-05-07 09:28 | 39.02756 | -104.50998 | 23746 ft | 284 kts | 162° |
| 2026-05-07 09:28 | 39.00948 | -104.49953 | 24074 ft | 286 kts | 162° |
| 2026-05-07 09:29 | 38.99123 | -104.48895 | 24401 ft | 288 kts | 162° |
| 2026-05-07 09:29 | 38.97290 | -104.47830 | 24727 ft | 290 kts | 162° |
| 2026-05-07 09:29 | 38.95445 | -104.46757 | 25054 ft | 290 kts | 162° |
| 2026-05-07 09:29 | 38.93600 | -104.45684 | 25379 ft | 291 kts | 162° |
| 2026-05-07 09:30 | 38.91758 | -104.44614 | 25704 ft | 291 kts | 162° |
| 2026-05-07 09:30 | 38.89922 | -104.43546 | 26028 ft | 290 kts | 162° |
| 2026-05-07 09:30 | 38.88079 | -104.42475 | 26353 ft | 289 kts | 162° |
| 2026-05-07 09:30 | 38.86245 | -104.41412 | 26644 ft | 289 kts | 162° |
| 2026-05-07 09:31 | 38.84424 | -104.40357 | 26899 ft | 291 kts | 162° |
| 2026-05-07 09:31 | 38.82568 | -104.39285 | 27152 ft | 294 kts | 162° |
| 2026-05-07 09:31 | 38.80690 | -104.38201 | 27405 ft | 298 kts | 163° |
| 2026-05-07 09:31 | 38.78782 | -104.37101 | 27659 ft | 304 kts | 162° |
| 2026-05-07 09:32 | 38.76822 | -104.35973 | 27915 ft | 314 kts | 162° |
| 2026-05-07 09:32 | 38.74785 | -104.34805 | 28173 ft | 329 kts | 162° |
| 2026-05-07 09:32 | 38.72613 | -104.33565 | 28436 ft | 354 kts | 162° |
| 2026-05-07 09:32 | 38.70289 | -104.32238 | 28700 ft | 378 kts | 162° |
| 2026-05-07 09:33 | 38.67824 | -104.30824 | 28961 ft | 398 kts | 161° |
| 2026-05-07 09:33 | 38.65258 | -104.29345 | 29220 ft | 409 kts | 161° |
| 2026-05-07 09:33 | 38.62647 | -104.27833 | 29486 ft | 414 kts | 161° |
| 2026-05-07 09:33 | 38.60016 | -104.26307 | 29831 ft | 417 kts | 161° |
| 2026-05-07 09:34 | 38.57367 | -104.24773 | 30201 ft | 419 kts | 161° |
| 2026-05-07 09:34 | 38.54699 | -104.23232 | 30576 ft | 422 kts | 161° |
| 2026-05-07 09:34 | 38.52009 | -104.21683 | 30952 ft | 425 kts | 161° |
| 2026-05-07 09:34 | 38.49335 | -104.20147 | 31323 ft | 428 kts | 161° |
| 2026-05-07 09:35 | 38.46609 | -104.18583 | 31699 ft | 430 kts | 161° |
| 2026-05-07 09:35 | 38.43873 | -104.17016 | 32075 ft | 431 kts | 161° |
| 2026-05-07 09:35 | 38.41125 | -104.15443 | 32450 ft | 434 kts | 161° |
| 2026-05-07 09:35 | 38.38359 | -104.13862 | 32826 ft | 435 kts | 161° |
| 2026-05-07 09:36 | 38.35594 | -104.12283 | 33201 ft | 436 kts | 161° |
| 2026-05-07 09:36 | 38.32820 | -104.10700 | 33576 ft | 437 kts | 161° |
| 2026-05-07 09:36 | 38.30041 | -104.09115 | 33951 ft | 437 kts | 161° |
| 2026-05-07 09:36 | 38.27267 | -104.07534 | 34325 ft | 437 kts | 161° |
| 2026-05-07 09:37 | 38.24528 | -104.05975 | 34695 ft | 436 kts | 161° |
| 2026-05-07 09:37 | 38.21720 | -104.04378 | 35075 ft | 435 kts | 161° |
| 2026-05-07 09:37 | 38.18994 | -104.02829 | 35444 ft | 434 kts | 161° |
| 2026-05-07 09:37 | 38.16234 | -104.01262 | 35818 ft | 434 kts | 161° |
| 2026-05-07 09:38 | 38.13476 | -103.99698 | 36193 ft | 435 kts | 161° |
| 2026-05-07 09:38 | 38.10716 | -103.98135 | 36568 ft | 435 kts | 161° |
| 2026-05-07 09:38 | 38.07954 | -103.96573 | 36942 ft | 435 kts | 161° |
| 2026-05-07 09:38 | 38.05189 | -103.95011 | 37317 ft | 434 kts | 161° |
| 2026-05-07 09:39 | 38.02424 | -103.93448 | 37692 ft | 433 kts | 161° |
| 2026-05-07 09:39 | 37.99673 | -103.91895 | 38066 ft | 432 kts | 161° |
| 2026-05-07 09:39 | 37.96925 | -103.90345 | 38401 ft | 432 kts | 161° |
| 2026-05-07 09:39 | 37.94178 | -103.88797 | 38707 ft | 432 kts | 161° |
| 2026-05-07 09:40 | 37.91433 | -103.87251 | 39007 ft | 432 kts | 161° |
| 2026-05-07 09:40 | 37.88686 | -103.85705 | 39287 ft | 432 kts | 161° |
| 2026-05-07 09:40 | 37.85936 | -103.84159 | 39542 ft | 432 kts | 161° |
| 2026-05-07 09:40 | 37.83184 | -103.82613 | 39793 ft | 433 kts | 161° |
| 2026-05-07 09:41 | 37.80432 | -103.81068 | 40043 ft | 433 kts | 161° |
| 2026-05-07 09:41 | 37.77719 | -103.79547 | 40280 ft | 433 kts | 161° |
| 2026-05-07 09:41 | 37.74964 | -103.78004 | 40489 ft | 433 kts | 161° |
| 2026-05-07 09:41 | 37.72206 | -103.76458 | 40691 ft | 434 kts | 161° |
| 2026-05-07 09:42 | 37.69442 | -103.74909 | 40860 ft | 435 kts | 161° |
| 2026-05-07 09:42 | 37.63862 | -103.71802 | 40910 ft | 440 kts | 161° |
| 2026-05-07 09:43 | 37.58251 | -103.68681 | 40910 ft | 440 kts | 161° |
| 2026-05-07 09:43 | 37.52643 | -103.65548 | 40913 ft | 440 kts | 161° |
| 2026-05-07 09:44 | 37.47065 | -103.62440 | 40924 ft | 440 kts | 161° |
| 2026-05-07 09:44 | 37.41455 | -103.59324 | 40927 ft | 441 kts | 161° |
| 2026-05-07 09:45 | 37.35836 | -103.56228 | 40928 ft | 441 kts | 162° |
| 2026-05-07 09:45 | 37.30228 | -103.53048 | 40928 ft | 443 kts | 158° |
| 2026-05-07 09:46 | 37.24901 | -103.49027 | 40933 ft | 450 kts | 149° |
| 2026-05-07 09:46 | 37.19876 | -103.44408 | 40936 ft | 451 kts | 149° |
| 2026-05-07 09:47 | 37.14803 | -103.39755 | 40937 ft | 451 kts | 149° |
| 2026-05-07 09:47 | 37.09739 | -103.35097 | 40939 ft | 452 kts | 149° |
| 2026-05-07 09:48 | 37.04662 | -103.30443 | 40941 ft | 452 kts | 149° |
| 2026-05-07 09:48 | 36.99579 | -103.25802 | 40944 ft | 452 kts | 149° |
| 2026-05-07 09:49 | 36.94487 | -103.21164 | 40947 ft | 453 kts | 149° |
| 2026-05-07 09:49 | 36.89381 | -103.16524 | 40952 ft | 453 kts | 149° |
| 2026-05-07 09:50 | 36.84280 | -103.11896 | 40953 ft | 453 kts | 149° |
| 2026-05-07 09:50 | 36.79210 | -103.07302 | 40961 ft | 453 kts | 149° |
| 2026-05-07 09:51 | 36.74101 | -103.02681 | 40967 ft | 453 kts | 149° |
| 2026-05-07 09:51 | 36.68983 | -102.98062 | 40971 ft | 454 kts | 149° |
| 2026-05-07 09:52 | 36.63861 | -102.93447 | 40974 ft | 453 kts | 149° |
| 2026-05-07 09:52 | 36.58749 | -102.88849 | 40975 ft | 453 kts | 149° |
| 2026-05-07 09:53 | 36.54492 | -102.85026 | 40976 ft | 453 kts | 149° |
| 2026-05-07 09:53 | 36.48542 | -102.79691 | 40974 ft | 453 kts | 149° |
| 2026-05-07 09:54 | 36.44256 | -102.75854 | 40973 ft | 453 kts | 149° |
| 2026-05-07 09:54 | 36.39135 | -102.71276 | 40971 ft | 453 kts | 149° |
| 2026-05-07 09:55 | 36.34048 | -102.66736 | 40968 ft | 453 kts | 149° |
| 2026-05-07 09:55 | 36.28933 | -102.62179 | 40965 ft | 453 kts | 149° |
| 2026-05-07 09:56 | 36.23804 | -102.57618 | 40963 ft | 453 kts | 149° |
| 2026-05-07 09:56 | 36.18687 | -102.53073 | 40961 ft | 453 kts | 149° |
| 2026-05-07 09:57 | 36.13569 | -102.48537 | 40960 ft | 452 kts | 149° |
| 2026-05-07 09:57 | 36.08447 | -102.44004 | 40959 ft | 452 kts | 150° |
| 2026-05-07 09:58 | 36.03331 | -102.39483 | 40959 ft | 452 kts | 150° |
| 2026-05-07 09:58 | 35.98215 | -102.34970 | 40958 ft | 452 kts | 150° |
| 2026-05-07 09:59 | 35.93131 | -102.30493 | 40957 ft | 452 kts | 150° |
| 2026-05-07 09:59 | 35.88018 | -102.25996 | 40958 ft | 451 kts | 150° |
| 2026-05-07 10:00 | 35.82899 | -102.21499 | 40960 ft | 451 kts | 150° |
| 2026-05-07 10:00 | 35.77777 | -102.17008 | 40961 ft | 451 kts | 150° |
| 2026-05-07 10:01 | 35.72660 | -102.12529 | 40962 ft | 451 kts | 150° |
| 2026-05-07 10:01 | 35.67541 | -102.08057 | 40964 ft | 451 kts | 150° |
| 2026-05-07 10:02 | 35.62456 | -102.03621 | 40966 ft | 451 kts | 150° |
| 2026-05-07 10:02 | 35.57333 | -101.99160 | 40969 ft | 451 kts | 150° |
| 2026-05-07 10:03 | 35.52213 | -101.94709 | 40971 ft | 450 kts | 150° |
| 2026-05-07 10:03 | 35.47093 | -101.90264 | 40976 ft | 450 kts | 150° |
| 2026-05-07 10:04 | 35.42016 | -101.85864 | 40981 ft | 449 kts | 150° |
| 2026-05-07 10:04 | 35.36913 | -101.81448 | 40987 ft | 449 kts | 150° |
| 2026-05-07 10:05 | 35.31815 | -101.77044 | 40993 ft | 448 kts | 150° |
| 2026-05-07 10:05 | 35.26750 | -101.72565 | 40997 ft | 451 kts | 145° |
| 2026-05-07 10:06 | 35.22597 | -101.66688 | 40999 ft | 465 kts | 126° |
| 2026-05-07 10:06 | 35.19813 | -101.59474 | 40999 ft | 471 kts | 118° |
| 2026-05-07 10:07 | 35.17234 | -101.52108 | 40996 ft | 471 kts | 118° |
| 2026-05-07 10:07 | 35.14672 | -101.44800 | 40994 ft | 470 kts | 118° |
| 2026-05-07 10:08 | 35.12066 | -101.37415 | 40992 ft | 470 kts | 118° |
| 2026-05-07 10:08 | 35.09486 | -101.30137 | 40991 ft | 470 kts | 118° |
| 2026-05-07 10:09 | 35.06887 | -101.22825 | 40989 ft | 470 kts | 119° |
| 2026-05-07 10:09 | 35.04282 | -101.15515 | 40987 ft | 469 kts | 119° |
| 2026-05-07 10:10 | 35.01672 | -101.08210 | 40986 ft | 469 kts | 119° |
| 2026-05-07 10:10 | 34.99058 | -101.00910 | 40984 ft | 469 kts | 119° |
| 2026-05-07 10:11 | 34.96439 | -100.93611 | 40965 ft | 469 kts | 119° |
| 2026-05-07 10:11 | 34.93834 | -100.86370 | 40961 ft | 469 kts | 119° |
| 2026-05-07 10:12 | 34.91212 | -100.79099 | 40961 ft | 468 kts | 120° |
| 2026-05-07 10:12 | 34.88583 | -100.71825 | 40961 ft | 468 kts | 120° |
| 2026-05-07 10:13 | 34.85957 | -100.64574 | 40962 ft | 468 kts | 120° |
| 2026-05-07 10:13 | 34.83324 | -100.57320 | 40962 ft | 468 kts | 120° |
| 2026-05-07 10:14 | 34.80692 | -100.50087 | 40963 ft | 467 kts | 120° |
| 2026-05-07 10:14 | 34.78057 | -100.42863 | 40964 ft | 467 kts | 120° |
| 2026-05-07 10:15 | 34.75419 | -100.35645 | 40966 ft | 467 kts | 120° |
| 2026-05-07 10:15 | 34.72776 | -100.28432 | 40967 ft | 467 kts | 120° |
| 2026-05-07 10:16 | 34.70133 | -100.21233 | 40964 ft | 466 kts | 120° |
| 2026-05-07 10:16 | 34.67501 | -100.14082 | 40964 ft | 466 kts | 121° |
| 2026-05-07 10:17 | 34.64840 | -100.06893 | 40963 ft | 466 kts | 121° |
| 2026-05-07 10:17 | 34.62172 | -99.99705 | 40962 ft | 466 kts | 121° |
| 2026-05-07 10:18 | 34.59510 | -99.92534 | 40961 ft | 465 kts | 121° |
| 2026-05-07 10:18 | 34.56849 | -99.85362 | 40960 ft | 465 kts | 121° |
| 2026-05-07 10:19 | 34.54207 | -99.78253 | 40959 ft | 465 kts | 121° |
| 2026-05-07 10:19 | 34.51549 | -99.71108 | 40958 ft | 465 kts | 121° |
| 2026-05-07 10:20 | 34.48884 | -99.63962 | 40958 ft | 465 kts | 122° |
| 2026-05-07 10:20 | 34.46208 | -99.56813 | 40958 ft | 465 kts | 122° |
| 2026-05-07 10:21 | 34.43532 | -99.49683 | 40959 ft | 465 kts | 122° |
| 2026-05-07 10:21 | 34.40789 | -99.42614 | 40963 ft | 462 kts | 124° |
| 2026-05-07 10:22 | 34.37763 | -99.35784 | 40965 ft | 458 kts | 127° |
| 2026-05-07 10:22 | 34.34569 | -99.29109 | 40966 ft | 458 kts | 128° |
| 2026-05-07 10:23 | 34.31382 | -99.22483 | 40965 ft | 458 kts | 128° |
| 2026-05-07 10:23 | 34.28181 | -99.15820 | 40964 ft | 457 kts | 128° |
| 2026-05-07 10:24 | 34.24984 | -99.09160 | 40960 ft | 457 kts | 128° |
| 2026-05-07 10:24 | 34.21789 | -99.02514 | 40958 ft | 457 kts | 128° |
| 2026-05-07 10:25 | 34.18594 | -98.95881 | 40957 ft | 456 kts | 128° |
| 2026-05-07 10:25 | 34.17013 | -98.92604 | 40829 ft | 459 kts | 129° |
| 2026-05-07 10:25 | 34.15401 | -98.89272 | 40422 ft | 459 kts | 129° |
| 2026-05-07 10:25 | 34.13797 | -98.85949 | 40001 ft | 457 kts | 129° |
| 2026-05-07 10:26 | 34.12197 | -98.82638 | 39577 ft | 454 kts | 129° |
| 2026-05-07 10:26 | 34.10610 | -98.79351 | 39151 ft | 450 kts | 130° |
| 2026-05-07 10:26 | 34.09041 | -98.76106 | 38725 ft | 445 kts | 130° |
| 2026-05-07 10:26 | 34.07490 | -98.72903 | 38300 ft | 441 kts | 130° |
| 2026-05-07 10:27 | 34.05940 | -98.69710 | 37873 ft | 438 kts | 130° |
| 2026-05-07 10:27 | 34.04404 | -98.66550 | 37435 ft | 436 kts | 130° |
| 2026-05-07 10:27 | 34.02872 | -98.63404 | 36988 ft | 434 kts | 131° |
| 2026-05-07 10:27 | 34.01344 | -98.60270 | 36538 ft | 432 kts | 131° |
| 2026-05-07 10:28 | 33.99839 | -98.57184 | 36093 ft | 431 kts | 131° |
| 2026-05-07 10:28 | 33.98319 | -98.54071 | 35643 ft | 430 kts | 131° |
| 2026-05-07 10:28 | 33.96799 | -98.50960 | 35192 ft | 428 kts | 131° |
| 2026-05-07 10:28 | 33.95313 | -98.47905 | 34741 ft | 417 kts | 131° |
| 2026-05-07 10:29 | 33.93864 | -98.44924 | 34289 ft | 411 kts | 131° |
| 2026-05-07 10:29 | 33.92419 | -98.41970 | 33838 ft | 406 kts | 132° |
| 2026-05-07 10:29 | 33.90991 | -98.39054 | 33387 ft | 402 kts | 132° |
| 2026-05-07 10:30 | 33.88169 | -98.33308 | 32485 ft | 395 kts | 131° |
| 2026-05-07 10:30 | 33.86783 | -98.30485 | 32034 ft | 389 kts | 132° |
| 2026-05-07 10:30 | 33.85429 | -98.27729 | 31587 ft | 383 kts | 132° |
| 2026-05-07 10:30 | 33.84071 | -98.24984 | 31134 ft | 378 kts | 131° |
| 2026-05-07 10:31 | 33.82741 | -98.22273 | 30688 ft | 374 kts | 131° |
| 2026-05-07 10:31 | 33.81426 | -98.19600 | 30234 ft | 366 kts | 132° |
| 2026-05-07 10:31 | 33.80145 | -98.17019 | 29781 ft | 353 kts | 132° |
| 2026-05-07 10:31 | 33.78927 | -98.14529 | 29335 ft | 334 kts | 133° |
| 2026-05-07 10:32 | 33.77785 | -98.12197 | 28878 ft | 317 kts | 133° |
| 2026-05-07 10:32 | 33.76677 | -98.09955 | 28417 ft | 307 kts | 133° |
| 2026-05-07 10:32 | 33.75605 | -98.07792 | 27960 ft | 295 kts | 133° |
| 2026-05-07 10:32 | 33.74577 | -98.05704 | 27506 ft | 285 kts | 133° |
| 2026-05-07 10:33 | 33.73566 | -98.03668 | 27052 ft | 284 kts | 134° |
| 2026-05-07 10:33 | 33.72534 | -98.01630 | 26600 ft | 287 kts | 134° |
| 2026-05-07 10:33 | 33.71488 | -97.99563 | 26131 ft | 291 kts | 133° |
| 2026-05-07 10:33 | 33.70440 | -97.97480 | 25639 ft | 291 kts | 132° |
| 2026-05-07 10:34 | 33.69401 | -97.95395 | 25139 ft | 290 kts | 131° |
| 2026-05-07 10:34 | 33.68374 | -97.93327 | 24644 ft | 294 kts | 131° |
| 2026-05-07 10:34 | 33.67332 | -97.91229 | 24143 ft | 290 kts | 131° |
| 2026-05-07 10:34 | 33.66304 | -97.89153 | 23640 ft | 287 kts | 131° |
| 2026-05-07 10:35 | 33.65286 | -97.87099 | 23127 ft | 284 kts | 130° |
| 2026-05-07 10:35 | 33.64276 | -97.85066 | 22604 ft | 283 kts | 130° |
| 2026-05-07 10:35 | 33.63270 | -97.83046 | 22080 ft | 282 kts | 130° |
| 2026-05-07 10:35 | 33.62267 | -97.81034 | 21556 ft | 281 kts | 129° |
| 2026-05-07 10:36 | 33.61264 | -97.79023 | 21030 ft | 280 kts | 129° |
| 2026-05-07 10:36 | 33.60278 | -97.77046 | 20512 ft | 279 kts | 129° |
| 2026-05-07 10:36 | 33.59284 | -97.75052 | 19988 ft | 279 kts | 128° |
| 2026-05-07 10:36 | 33.58288 | -97.73056 | 19462 ft | 278 kts | 128° |
| 2026-05-07 10:37 | 33.57294 | -97.71066 | 18938 ft | 278 kts | 128° |
| 2026-05-07 10:37 | 33.56310 | -97.69091 | 18412 ft | 274 kts | 127° |
| 2026-05-07 10:37 | 33.55344 | -97.67150 | 17887 ft | 269 kts | 127° |
| 2026-05-07 10:37 | 33.54397 | -97.65245 | 17359 ft | 263 kts | 127° |
| 2026-05-07 10:38 | 33.53466 | -97.63378 | 16832 ft | 259 kts | 128° |
| 2026-05-07 10:38 | 33.52547 | -97.61541 | 16305 ft | 255 kts | 128° |
| 2026-05-07 10:38 | 33.51944 | -97.60337 | 15956 ft | 253 kts | 128° |
| 2026-05-07 10:38 | 33.51041 | -97.58535 | 15429 ft | 251 kts | 128° |
| 2026-05-07 10:39 | 33.50143 | -97.56750 | 14901 ft | 249 kts | 128° |
| 2026-05-07 10:39 | 33.49239 | -97.54963 | 14379 ft | 253 kts | 128° |
| 2026-05-07 10:39 | 33.48323 | -97.53152 | 13855 ft | 254 kts | 128° |
| 2026-05-07 10:39 | 33.47415 | -97.51351 | 13329 ft | 251 kts | 128° |
| 2026-05-07 10:40 | 33.46518 | -97.49567 | 12805 ft | 250 kts | 128° |
| 2026-05-07 10:40 | 33.45641 | -97.47762 | 12275 ft | 252 kts | 122° |
| 2026-05-07 10:40 | 33.45073 | -97.45752 | 11751 ft | 259 kts | 104° |
| 2026-05-07 10:40 | 33.44983 | -97.43591 | 11241 ft | 260 kts | 94° |
| 2026-05-07 10:41 | 33.44926 | -97.41442 | 10719 ft | 257 kts | 96° |
| 2026-05-07 10:41 | 33.44836 | -97.39318 | 10210 ft | 254 kts | 97° |
| 2026-05-07 10:41 | 33.44746 | -97.37283 | 10115 ft | 235 kts | 97° |
| 2026-05-07 10:41 | 33.44659 | -97.35307 | 10059 ft | 245 kts | 97° |
| 2026-05-07 10:42 | 33.44564 | -97.33263 | 10033 ft | 242 kts | 97° |
| 2026-05-07 10:42 | 33.44481 | -97.31302 | 10017 ft | 231 kts | 97° |
| 2026-05-07 10:42 | 33.44400 | -97.29364 | 9661 ft | 236 kts | 98° |
| 2026-05-07 10:42 | 33.44315 | -97.27402 | 9277 ft | 243 kts | 96° |
| 2026-05-07 10:43 | 33.44226 | -97.25363 | 8884 ft | 246 kts | 98° |
| 2026-05-07 10:43 | 33.44160 | -97.23334 | 8480 ft | 243 kts | 96° |
| 2026-05-07 10:43 | 33.44098 | -97.21328 | 8082 ft | 240 kts | 97° |
| 2026-05-07 10:43 | 33.44032 | -97.19345 | 7703 ft | 237 kts | 97° |
| 2026-05-07 10:44 | 33.43956 | -97.17381 | 7285 ft | 235 kts | 98° |
| 2026-05-07 10:44 | 33.43867 | -97.15439 | 6891 ft | 232 kts | 98° |
| 2026-05-07 10:44 | 33.43793 | -97.13511 | 6509 ft | 231 kts | 97° |
| 2026-05-07 10:44 | 33.43728 | -97.11594 | 6111 ft | 230 kts | 99° |
| 2026-05-07 10:45 | 33.43663 | -97.09677 | 5707 ft | 230 kts | 98° |
| 2026-05-07 10:45 | 33.43596 | -97.07773 | 5316 ft | 228 kts | 99° |
| 2026-05-07 10:45 | 33.43516 | -97.05902 | 4917 ft | 222 kts | 99° |
| 2026-05-07 10:45 | 33.43434 | -97.04070 | 4520 ft | 218 kts | 100° |
| 2026-05-07 10:46 | 33.43367 | -97.02301 | 4118 ft | 214 kts | 99° |
| 2026-05-07 10:46 | 33.43299 | -97.00539 | 3892 ft | 202 kts | 100° |
| 2026-05-07 10:46 | 33.43244 | -96.98936 | 3828 ft | 185 kts | 100° |
| 2026-05-07 10:46 | 33.43193 | -96.97460 | 3786 ft | 170 kts | 101° |
| 2026-05-07 10:47 | 33.43126 | -96.96001 | 3824 ft | 184 kts | 102° |
| 2026-05-07 10:47 | 33.43037 | -96.94392 | 3836 ft | 197 kts | 101° |
| 2026-05-07 10:47 | 33.42956 | -96.92774 | 3807 ft | 190 kts | 103° |
| 2026-05-07 10:47 | 33.42666 | -96.91290 | 3806 ft | 180 kts | 121° |
| 2026-05-07 10:48 | 33.42098 | -96.89917 | 3824 ft | 189 kts | 127° |
| 2026-05-07 10:48 | 33.41439 | -96.88499 | 3824 ft | 200 kts | 127° |
| 2026-05-07 10:48 | 33.40735 | -96.87034 | 3819 ft | 202 kts | 128° |
| 2026-05-07 10:48 | 33.40054 | -96.85607 | 3808 ft | 197 kts | 127° |
| 2026-05-07 10:49 | 33.39325 | -96.84263 | 3814 ft | 187 kts | 140° |
| 2026-05-07 10:49 | 33.38349 | -96.83308 | 3818 ft | 177 kts | 158° |
| 2026-05-07 10:49 | 33.37228 | -96.82789 | 3820 ft | 170 kts | 171° |
| 2026-05-07 10:49 | 33.36082 | -96.82471 | 3812 ft | 167 kts | 173° |
| 2026-05-07 10:50 | 33.34945 | -96.82195 | 3813 ft | 166 kts | 174° |
| 2026-05-07 10:50 | 33.33816 | -96.81926 | 3815 ft | 165 kts | 174° |
| 2026-05-07 10:50 | 33.32694 | -96.81655 | 3817 ft | 164 kts | 174° |
| 2026-05-07 10:50 | 33.31578 | -96.81378 | 3820 ft | 163 kts | 173° |
| 2026-05-07 10:51 | 33.30472 | -96.81103 | 3831 ft | 162 kts | 173° |
| 2026-05-07 10:51 | 33.29383 | -96.80830 | 3833 ft | 162 kts | 173° |
| 2026-05-07 10:51 | 33.28280 | -96.80550 | 3825 ft | 162 kts | 174° |
| 2026-05-07 10:51 | 33.27179 | -96.80273 | 3828 ft | 161 kts | 173° |
| 2026-05-07 10:52 | 33.26080 | -96.79996 | 3827 ft | 161 kts | 174° |
| 2026-05-07 10:52 | 33.24984 | -96.79723 | 3836 ft | 161 kts | 173° |
| 2026-05-07 10:52 | 33.23884 | -96.79445 | 3833 ft | 162 kts | 173° |
| 2026-05-07 10:52 | 33.22782 | -96.79162 | 3839 ft | 162 kts | 173° |
| 2026-05-07 10:53 | 33.21676 | -96.78878 | 3833 ft | 163 kts | 173° |
| 2026-05-07 10:53 | 33.20565 | -96.78595 | 3831 ft | 163 kts | 173° |
| 2026-05-07 10:53 | 33.19460 | -96.78316 | 3831 ft | 162 kts | 173° |
| 2026-05-07 10:53 | 33.18356 | -96.78038 | 3835 ft | 162 kts | 173° |
| 2026-05-07 10:54 | 33.17253 | -96.77757 | 3833 ft | 162 kts | 173° |
| 2026-05-07 10:54 | 33.16151 | -96.77478 | 3831 ft | 161 kts | 173° |
| 2026-05-07 10:54 | 33.15053 | -96.77206 | 3832 ft | 161 kts | 173° |
| 2026-05-07 10:54 | 33.13957 | -96.76934 | 3839 ft | 160 kts | 173° |
| 2026-05-07 10:55 | 33.12864 | -96.76660 | 3836 ft | 160 kts | 173° |
| 2026-05-07 10:55 | 33.11784 | -96.76386 | 3839 ft | 161 kts | 173° |
| 2026-05-07 10:55 | 33.10687 | -96.76106 | 3842 ft | 161 kts | 173° |
| 2026-05-07 10:55 | 33.09593 | -96.75831 | 3844 ft | 161 kts | 173° |
| 2026-05-07 10:56 | 33.08492 | -96.75557 | 3845 ft | 162 kts | 173° |
| 2026-05-07 10:56 | 33.07390 | -96.75280 | 3844 ft | 162 kts | 173° |
| 2026-05-07 10:56 | 33.06290 | -96.75002 | 3843 ft | 161 kts | 173° |
| 2026-05-07 10:56 | 33.05192 | -96.74729 | 3847 ft | 161 kts | 173° |
| 2026-05-07 10:57 | 33.04091 | -96.74453 | 3849 ft | 162 kts | 173° |
| 2026-05-07 10:57 | 33.02986 | -96.74181 | 3841 ft | 162 kts | 173° |
| 2026-05-07 10:57 | 33.01883 | -96.73907 | 3845 ft | 162 kts | 173° |
| 2026-05-07 10:57 | 33.00772 | -96.73632 | 3847 ft | 163 kts | 173° |
| 2026-05-07 10:58 | 32.99668 | -96.73354 | 3840 ft | 162 kts | 173° |
| 2026-05-07 10:58 | 32.98564 | -96.73081 | 3848 ft | 162 kts | 173° |
| 2026-05-07 10:58 | 32.97460 | -96.72807 | 3841 ft | 162 kts | 173° |
| 2026-05-07 10:58 | 32.96358 | -96.72531 | 3848 ft | 162 kts | 173° |
| 2026-05-07 10:59 | 32.95253 | -96.72253 | 3846 ft | 162 kts | 173° |
| 2026-05-07 10:59 | 32.94161 | -96.71977 | 3847 ft | 163 kts | 172° |
| 2026-05-07 10:59 | 32.93052 | -96.71699 | 3849 ft | 163 kts | 173° |
| 2026-05-07 10:59 | 32.91941 | -96.71420 | 3843 ft | 163 kts | 173° |
| 2026-05-07 11:00 | 32.90830 | -96.71143 | 3850 ft | 163 kts | 173° |
| 2026-05-07 11:00 | 32.89724 | -96.70867 | 3848 ft | 162 kts | 173° |
| 2026-05-07 11:00 | 32.88613 | -96.70595 | 3847 ft | 162 kts | 173° |
| 2026-05-07 11:00 | 32.87509 | -96.70317 | 3853 ft | 162 kts | 173° |
| 2026-05-07 11:01 | 32.86400 | -96.70039 | 3848 ft | 163 kts | 173° |
| 2026-05-07 11:01 | 32.85292 | -96.69763 | 3844 ft | 163 kts | 173° |
| 2026-05-07 11:01 | 32.84183 | -96.69489 | 3849 ft | 163 kts | 173° |
| 2026-05-07 11:01 | 32.83075 | -96.69215 | 3848 ft | 163 kts | 173° |
| 2026-05-07 11:02 | 32.81965 | -96.68938 | 3848 ft | 163 kts | 173° |
| 2026-05-07 11:02 | 32.80843 | -96.68661 | 3749 ft | 168 kts | 173° |
| 2026-05-07 11:02 | 32.79680 | -96.68377 | 3536 ft | 175 kts | 172° |
| 2026-05-07 11:02 | 32.78495 | -96.68080 | 3314 ft | 174 kts | 172° |
| 2026-05-07 11:03 | 32.77298 | -96.68032 | 3078 ft | 171 kts | 192° |
| 2026-05-07 11:03 | 32.76203 | -96.68551 | 2858 ft | 171 kts | 212° |
| 2026-05-07 11:03 | 32.75351 | -96.69543 | 2632 ft | 175 kts | 232° |
| 2026-05-07 11:03 | 32.74878 | -96.70898 | 2410 ft | 182 kts | 254° |
| 2026-05-07 11:04 | 32.74913 | -96.72415 | 2260 ft | 186 kts | 279° |
| 2026-05-07 11:04 | 32.75482 | -96.73786 | 2230 ft | 187 kts | 303° |
| 2026-05-07 11:04 | 32.76384 | -96.74880 | 2202 ft | 182 kts | 311° |
| 2026-05-07 11:04 | 32.77271 | -96.75907 | 2191 ft | 174 kts | 309° |
| 2026-05-07 11:05 | 32.78095 | -96.76904 | 2192 ft | 169 kts | 310° |
| 2026-05-07 11:05 | 32.78965 | -96.77820 | 2179 ft | 165 kts | 316° |
| 2026-05-07 11:05 | 32.79876 | -96.78680 | 1862 ft | 166 kts | 315° |
| 2026-05-07 11:05 | 32.80655 | -96.79665 | 1438 ft | 165 kts | 309° |
| 2026-05-07 11:06 | 32.81428 | -96.80701 | 1286 ft | 167 kts | 313° |
| 2026-05-07 11:06 | 32.82201 | -96.81621 | 1222 ft | 146 kts | 316° |
| 2026-05-07 11:06 | 32.82919 | -96.82428 | 886 ft | 138 kts | 315° |
| 2026-05-07 11:06 | 32.83618 | -96.83237 | 675 ft | 142 kts | 313° |
| 2026-05-07 11:07 | 32.84322 | -96.84057 | 515 ft | 141 kts | 315° |
| 2026-05-07 11:07 | 32.84953 | -96.84784 | 493 ft | 97 kts | 314° |
| 2026-05-07 11:07 | 32.85288 | -96.85171 | 493 ft | 36 kts | 315° |
| 2026-05-07 11:07 | 32.85440 | -96.85212 | 493 ft | 23 kts | 5° |
| 2026-05-07 11:08 | 32.85612 | -96.85202 | 493 ft | 26 kts | 5° |
| 2026-05-07 11:08 | 32.85759 | -96.85183 | 493 ft | 13 kts | 8° |
| 2026-05-07 11:08 | 32.85819 | -96.85229 | 493 ft | 3 kts | 280° |